sensor_id;sensor_type;location;lat;lon;timestamp;P1;durP1;ratioP1;P2;durP2;ratioP2
9898;SDS011;4988;49.238;6.698;2022-12-29T00:02:10;5.63;;;3.50;;
9898;SDS011;4988;49.238;6.698;2022-12-29T00:04:36;4.53;;;3.23;;
9898;SDS011;4988;49.238;6.698;2022-12-29T00:07:01;4.87;;;3.50;;
9898;SDS011;4988;49.238;6.698;2022-12-29T00:09:29;4.73;;;3.07;;
9898;SDS011;4988;49.238;6.698;2022-12-29T00:11:55;5.67;;;3.73;;
9898;SDS011;4988;49.238;6.698;2022-12-29T00:14:20;7.87;;;3.23;;
9898;SDS011;4988;49.238;6.698;2022-12-29T00:17:04;8.43;;;3.77;;
9898;SDS011;4988;49.238;6.698;2022-12-29T00:19:30;10.90;;;3.30;;
9898;SDS011;4988;49.238;6.698;2022-12-29T00:22:14;5.07;;;3.63;;
9898;SDS011;4988;49.238;6.698;2022-12-29T00:25:12;5.50;;;2.90;;
9898;SDS011;4988;49.238;6.698;2022-12-29T00:27:57;4.90;;;3.23;;
9898;SDS011;4988;49.238;6.698;2022-12-29T00:30:41;6.90;;;3.73;;
9898;SDS011;4988;49.238;6.698;2022-12-29T00:33:26;8.37;;;3.70;;
9898;SDS011;4988;49.238;6.698;2022-12-29T00:38:57;4.30;;;3.03;;
9898;SDS011;4988;49.238;6.698;2022-12-29T00:41:44;5.13;;;3.30;;
9898;SDS011;4988;49.238;6.698;2022-12-29T00:44:28;6.57;;;3.17;;
9898;SDS011;4988;49.238;6.698;2022-12-29T00:46:53;7.40;;;3.73;;
9898;SDS011;4988;49.238;6.698;2022-12-29T00:49:18;7.77;;;3.43;;
9898;SDS011;4988;49.238;6.698;2022-12-29T00:54:29;4.67;;;3.30;;
9898;SDS011;4988;49.238;6.698;2022-12-29T00:56:56;5.40;;;3.30;;
9898;SDS011;4988;49.238;6.698;2022-12-29T00:59:21;5.03;;;3.17;;
9898;SDS011;4988;49.238;6.698;2022-12-29T01:01:48;6.83;;;3.20;;
9898;SDS011;4988;49.238;6.698;2022-12-29T01:04:14;5.70;;;3.17;;
9898;SDS011;4988;49.238;6.698;2022-12-29T01:06:40;5.57;;;3.13;;
9898;SDS011;4988;49.238;6.698;2022-12-29T01:09:06;6.17;;;3.50;;
9898;SDS011;4988;49.238;6.698;2022-12-29T01:11:51;5.00;;;3.50;;
9898;SDS011;4988;49.238;6.698;2022-12-29T01:14:17;5.60;;;3.20;;
9898;SDS011;4988;49.238;6.698;2022-12-29T01:16:43;7.37;;;3.10;;
9898;SDS011;4988;49.238;6.698;2022-12-29T01:19:09;4.23;;;2.90;;
9898;SDS011;4988;49.238;6.698;2022-12-29T01:21:35;5.40;;;3.20;;
9898;SDS011;4988;49.238;6.698;2022-12-29T01:24:00;6.50;;;3.30;;
9898;SDS011;4988;49.238;6.698;2022-12-29T01:26:26;3.60;;;2.80;;
9898;SDS011;4988;49.238;6.698;2022-12-29T01:28:51;5.20;;;2.70;;
9898;SDS011;4988;49.238;6.698;2022-12-29T01:31:17;5.73;;;3.77;;
9898;SDS011;4988;49.238;6.698;2022-12-29T01:33:42;4.63;;;2.80;;
9898;SDS011;4988;49.238;6.698;2022-12-29T01:36:12;5.07;;;2.80;;
9898;SDS011;4988;49.238;6.698;2022-12-29T01:38:39;4.20;;;2.70;;
9898;SDS011;4988;49.238;6.698;2022-12-29T01:41:06;4.00;;;2.50;;
9898;SDS011;4988;49.238;6.698;2022-12-29T01:46:20;4.80;;;2.90;;
9898;SDS011;4988;49.238;6.698;2022-12-29T01:49:00;6.87;;;2.93;;
9898;SDS011;4988;49.238;6.698;2022-12-29T01:51:28;6.37;;;3.23;;
9898;SDS011;4988;49.238;6.698;2022-12-29T01:53:56;4.93;;;3.27;;
9898;SDS011;4988;49.238;6.698;2022-12-29T01:56:23;4.33;;;3.10;;
9898;SDS011;4988;49.238;6.698;2022-12-29T01:58:50;6.80;;;3.67;;
9898;SDS011;4988;49.238;6.698;2022-12-29T02:01:24;9.27;;;3.53;;
9898;SDS011;4988;49.238;6.698;2022-12-29T02:03:50;6.87;;;3.37;;
9898;SDS011;4988;49.238;6.698;2022-12-29T02:06:27;6.50;;;3.30;;
9898;SDS011;4988;49.238;6.698;2022-12-29T02:08:56;4.53;;;3.30;;
9898;SDS011;4988;49.238;6.698;2022-12-29T02:11:23;6.20;;;4.20;;
9898;SDS011;4988;49.238;6.698;2022-12-29T02:13:51;8.53;;;4.50;;
9898;SDS011;4988;49.238;6.698;2022-12-29T02:16:20;4.37;;;3.30;;
9898;SDS011;4988;49.238;6.698;2022-12-29T02:22:02;5.33;;;3.47;;
9898;SDS011;4988;49.238;6.698;2022-12-29T02:27:57;5.67;;;3.40;;
9898;SDS011;4988;49.238;6.698;2022-12-29T02:30:42;7.53;;;3.80;;
9898;SDS011;4988;49.238;6.698;2022-12-29T02:42:06;5.07;;;3.57;;
9898;SDS011;4988;49.238;6.698;2022-12-29T02:45:10;4.53;;;3.27;;
9898;SDS011;4988;49.238;6.698;2022-12-29T02:47:39;7.83;;;3.90;;
9898;SDS011;4988;49.238;6.698;2022-12-29T02:52:58;8.40;;;4.03;;
9898;SDS011;4988;49.238;6.698;2022-12-29T02:55:27;7.03;;;4.30;;
9898;SDS011;4988;49.238;6.698;2022-12-29T03:01:04;11.13;;;4.07;;
9898;SDS011;4988;49.238;6.698;2022-12-29T03:12:20;5.83;;;4.10;;
9898;SDS011;4988;49.238;6.698;2022-12-29T03:15:26;5.53;;;4.07;;
9898;SDS011;4988;49.238;6.698;2022-12-29T03:23:47;6.80;;;3.83;;
9898;SDS011;4988;49.238;6.698;2022-12-29T03:26:15;9.90;;;4.13;;
9898;SDS011;4988;49.238;6.698;2022-12-29T03:28:47;7.27;;;3.83;;
9898;SDS011;4988;49.238;6.698;2022-12-29T03:31:17;6.43;;;3.90;;
9898;SDS011;4988;49.238;6.698;2022-12-29T03:33:46;6.73;;;3.97;;
9898;SDS011;4988;49.238;6.698;2022-12-29T03:36:15;6.20;;;4.10;;
9898;SDS011;4988;49.238;6.698;2022-12-29T03:38:55;8.83;;;4.20;;
9898;SDS011;4988;49.238;6.698;2022-12-29T03:41:28;7.73;;;3.80;;
9898;SDS011;4988;49.238;6.698;2022-12-29T03:43:55;6.80;;;4.40;;
9898;SDS011;4988;49.238;6.698;2022-12-29T03:46:21;6.57;;;3.50;;
9898;SDS011;4988;49.238;6.698;2022-12-29T03:48:46;7.10;;;4.10;;
9898;SDS011;4988;49.238;6.698;2022-12-29T03:51:12;8.07;;;3.83;;
9898;SDS011;4988;49.238;6.698;2022-12-29T03:53:37;7.33;;;3.93;;
9898;SDS011;4988;49.238;6.698;2022-12-29T03:56:02;7.67;;;4.37;;
9898;SDS011;4988;49.238;6.698;2022-12-29T03:58:28;8.90;;;3.77;;
9898;SDS011;4988;49.238;6.698;2022-12-29T04:00:53;7.90;;;3.93;;
9898;SDS011;4988;49.238;6.698;2022-12-29T04:03:18;7.70;;;3.90;;
9898;SDS011;4988;49.238;6.698;2022-12-29T04:05:44;7.07;;;3.80;;
9898;SDS011;4988;49.238;6.698;2022-12-29T04:08:09;5.57;;;3.67;;
9898;SDS011;4988;49.238;6.698;2022-12-29T04:10:34;8.83;;;4.13;;
9898;SDS011;4988;49.238;6.698;2022-12-29T04:12:59;6.03;;;3.67;;
9898;SDS011;4988;49.238;6.698;2022-12-29T04:15:25;5.60;;;3.30;;
9898;SDS011;4988;49.238;6.698;2022-12-29T04:17:51;7.00;;;4.03;;
9898;SDS011;4988;49.238;6.698;2022-12-29T04:20:16;7.27;;;4.00;;
9898;SDS011;4988;49.238;6.698;2022-12-29T04:23:01;8.37;;;3.80;;
9898;SDS011;4988;49.238;6.698;2022-12-29T04:25:28;5.77;;;3.80;;
9898;SDS011;4988;49.238;6.698;2022-12-29T04:27:54;9.60;;;4.00;;
9898;SDS011;4988;49.238;6.698;2022-12-29T04:30:20;5.60;;;4.23;;
9898;SDS011;4988;49.238;6.698;2022-12-29T04:32:45;12.67;;;4.00;;
9898;SDS011;4988;49.238;6.698;2022-12-29T04:35:10;7.90;;;3.63;;
9898;SDS011;4988;49.238;6.698;2022-12-29T04:37:36;7.33;;;3.83;;
9898;SDS011;4988;49.238;6.698;2022-12-29T04:40:01;5.60;;;3.97;;
9898;SDS011;4988;49.238;6.698;2022-12-29T04:42:26;5.83;;;3.20;;
9898;SDS011;4988;49.238;6.698;2022-12-29T04:44:51;5.07;;;3.80;;
9898;SDS011;4988;49.238;6.698;2022-12-29T04:47:17;5.87;;;3.33;;
9898;SDS011;4988;49.238;6.698;2022-12-29T04:49:42;5.37;;;3.60;;
9898;SDS011;4988;49.238;6.698;2022-12-29T04:52:07;7.33;;;4.03;;
9898;SDS011;4988;49.238;6.698;2022-12-29T04:54:33;4.80;;;3.00;;
9898;SDS011;4988;49.238;6.698;2022-12-29T04:56:58;5.50;;;3.40;;
9898;SDS011;4988;49.238;6.698;2022-12-29T04:59:24;5.57;;;3.87;;
9898;SDS011;4988;49.238;6.698;2022-12-29T05:01:49;4.70;;;3.40;;
9898;SDS011;4988;49.238;6.698;2022-12-29T05:04:14;6.30;;;3.30;;
9898;SDS011;4988;49.238;6.698;2022-12-29T05:06:40;5.73;;;3.43;;
9898;SDS011;4988;49.238;6.698;2022-12-29T05:09:05;5.47;;;3.40;;
9898;SDS011;4988;49.238;6.698;2022-12-29T05:11:30;8.47;;;3.43;;
9898;SDS011;4988;49.238;6.698;2022-12-29T05:13:56;7.90;;;3.77;;
9898;SDS011;4988;49.238;6.698;2022-12-29T05:16:21;7.07;;;3.90;;
9898;SDS011;4988;49.238;6.698;2022-12-29T05:18:46;8.10;;;3.93;;
9898;SDS011;4988;49.238;6.698;2022-12-29T05:21:12;8.80;;;3.70;;
9898;SDS011;4988;49.238;6.698;2022-12-29T05:23:37;5.77;;;3.30;;
9898;SDS011;4988;49.238;6.698;2022-12-29T05:26:02;8.53;;;3.47;;
9898;SDS011;4988;49.238;6.698;2022-12-29T05:28:27;5.83;;;3.07;;
9898;SDS011;4988;49.238;6.698;2022-12-29T05:30:53;7.63;;;3.50;;
9898;SDS011;4988;49.238;6.698;2022-12-29T05:33:18;5.13;;;3.43;;
9898;SDS011;4988;49.238;6.698;2022-12-29T05:35:44;7.07;;;3.40;;
9898;SDS011;4988;49.238;6.698;2022-12-29T05:38:09;6.37;;;3.50;;
9898;SDS011;4988;49.238;6.698;2022-12-29T05:40:35;9.47;;;3.37;;
9898;SDS011;4988;49.238;6.698;2022-12-29T05:43:00;6.03;;;3.30;;
9898;SDS011;4988;49.238;6.698;2022-12-29T05:45:26;5.20;;;3.23;;
9898;SDS011;4988;49.238;6.698;2022-12-29T05:47:51;8.90;;;3.73;;
9898;SDS011;4988;49.238;6.698;2022-12-29T05:50:16;7.13;;;3.53;;
9898;SDS011;4988;49.238;6.698;2022-12-29T05:52:42;4.23;;;3.37;;
9898;SDS011;4988;49.238;6.698;2022-12-29T05:55:07;10.53;;;3.60;;
9898;SDS011;4988;49.238;6.698;2022-12-29T05:57:33;6.27;;;3.70;;
9898;SDS011;4988;49.238;6.698;2022-12-29T05:59:58;5.93;;;3.47;;
9898;SDS011;4988;49.238;6.698;2022-12-29T06:02:23;6.60;;;3.60;;
9898;SDS011;4988;49.238;6.698;2022-12-29T06:04:48;7.30;;;4.17;;
9898;SDS011;4988;49.238;6.698;2022-12-29T06:07:14;5.50;;;3.40;;
9898;SDS011;4988;49.238;6.698;2022-12-29T06:09:39;6.00;;;3.60;;
9898;SDS011;4988;49.238;6.698;2022-12-29T06:12:04;6.97;;;3.60;;
9898;SDS011;4988;49.238;6.698;2022-12-29T06:14:30;6.00;;;3.33;;
9898;SDS011;4988;49.238;6.698;2022-12-29T06:16:55;5.67;;;3.70;;
9898;SDS011;4988;49.238;6.698;2022-12-29T06:19:21;7.67;;;3.80;;
9898;SDS011;4988;49.238;6.698;2022-12-29T06:21:46;7.97;;;3.90;;
9898;SDS011;4988;49.238;6.698;2022-12-29T06:24:11;5.40;;;4.00;;
9898;SDS011;4988;49.238;6.698;2022-12-29T06:26:37;6.63;;;3.77;;
9898;SDS011;4988;49.238;6.698;2022-12-29T06:29:02;8.63;;;3.83;;
9898;SDS011;4988;49.238;6.698;2022-12-29T06:31:27;5.47;;;3.87;;
9898;SDS011;4988;49.238;6.698;2022-12-29T06:33:53;7.10;;;3.40;;
9898;SDS011;4988;49.238;6.698;2022-12-29T06:36:18;6.17;;;4.07;;
9898;SDS011;4988;49.238;6.698;2022-12-29T06:38:43;6.43;;;4.30;;
9898;SDS011;4988;49.238;6.698;2022-12-29T06:41:09;5.67;;;3.93;;
9898;SDS011;4988;49.238;6.698;2022-12-29T06:43:34;5.10;;;4.00;;
9898;SDS011;4988;49.238;6.698;2022-12-29T06:46:03;9.23;;;3.77;;
9898;SDS011;4988;49.238;6.698;2022-12-29T06:48:29;9.30;;;4.33;;
9898;SDS011;4988;49.238;6.698;2022-12-29T06:50:54;6.80;;;3.77;;
9898;SDS011;4988;49.238;6.698;2022-12-29T06:53:19;7.23;;;4.47;;
9898;SDS011;4988;49.238;6.698;2022-12-29T06:55:44;5.00;;;3.37;;
9898;SDS011;4988;49.238;6.698;2022-12-29T06:58:10;5.37;;;3.97;;
9898;SDS011;4988;49.238;6.698;2022-12-29T07:00:35;7.87;;;3.83;;
9898;SDS011;4988;49.238;6.698;2022-12-29T07:03:00;7.23;;;4.13;;
9898;SDS011;4988;49.238;6.698;2022-12-29T07:05:26;10.07;;;3.77;;
9898;SDS011;4988;49.238;6.698;2022-12-29T07:07:52;5.73;;;3.47;;
9898;SDS011;4988;49.238;6.698;2022-12-29T07:10:18;8.80;;;4.20;;
9898;SDS011;4988;49.238;6.698;2022-12-29T07:12:44;9.37;;;4.10;;
9898;SDS011;4988;49.238;6.698;2022-12-29T07:15:09;8.10;;;4.20;;
9898;SDS011;4988;49.238;6.698;2022-12-29T07:17:35;7.83;;;4.30;;
9898;SDS011;4988;49.238;6.698;2022-12-29T07:20:00;8.63;;;4.57;;
9898;SDS011;4988;49.238;6.698;2022-12-29T07:22:25;7.87;;;4.10;;
9898;SDS011;4988;49.238;6.698;2022-12-29T07:24:51;5.97;;;4.43;;
9898;SDS011;4988;49.238;6.698;2022-12-29T07:27:16;9.37;;;4.90;;
9898;SDS011;4988;49.238;6.698;2022-12-29T07:29:41;8.37;;;4.50;;
9898;SDS011;4988;49.238;6.698;2022-12-29T07:32:07;8.23;;;4.70;;
9898;SDS011;4988;49.238;6.698;2022-12-29T07:34:32;9.00;;;4.37;;
9898;SDS011;4988;49.238;6.698;2022-12-29T07:36:57;8.23;;;4.00;;
9898;SDS011;4988;49.238;6.698;2022-12-29T07:39:23;6.77;;;4.37;;
9898;SDS011;4988;49.238;6.698;2022-12-29T07:41:48;8.33;;;4.63;;
9898;SDS011;4988;49.238;6.698;2022-12-29T07:44:13;7.67;;;4.90;;
9898;SDS011;4988;49.238;6.698;2022-12-29T07:46:38;8.90;;;4.13;;
9898;SDS011;4988;49.238;6.698;2022-12-29T07:49:04;8.40;;;4.27;;
9898;SDS011;4988;49.238;6.698;2022-12-29T07:51:29;8.00;;;4.13;;
9898;SDS011;4988;49.238;6.698;2022-12-29T07:53:54;8.07;;;4.17;;
9898;SDS011;4988;49.238;6.698;2022-12-29T07:56:20;7.60;;;4.43;;
9898;SDS011;4988;49.238;6.698;2022-12-29T07:58:45;7.97;;;5.00;;
9898;SDS011;4988;49.238;6.698;2022-12-29T08:01:10;8.40;;;4.47;;
9898;SDS011;4988;49.238;6.698;2022-12-29T08:03:36;7.63;;;4.87;;
9898;SDS011;4988;49.238;6.698;2022-12-29T08:06:01;9.67;;;4.20;;
9898;SDS011;4988;49.238;6.698;2022-12-29T08:08:27;9.27;;;4.67;;
9898;SDS011;4988;49.238;6.698;2022-12-29T08:10:52;9.17;;;4.53;;
9898;SDS011;4988;49.238;6.698;2022-12-29T08:13:17;7.63;;;5.03;;
9898;SDS011;4988;49.238;6.698;2022-12-29T08:15:43;10.43;;;4.77;;
9898;SDS011;4988;49.238;6.698;2022-12-29T08:18:08;11.07;;;4.90;;
9898;SDS011;4988;49.238;6.698;2022-12-29T08:20:33;9.03;;;4.30;;
9898;SDS011;4988;49.238;6.698;2022-12-29T08:22:58;8.73;;;4.67;;
9898;SDS011;4988;49.238;6.698;2022-12-29T08:25:24;7.40;;;4.63;;
9898;SDS011;4988;49.238;6.698;2022-12-29T08:27:49;7.30;;;4.00;;
9898;SDS011;4988;49.238;6.698;2022-12-29T08:30:14;6.53;;;4.40;;
9898;SDS011;4988;49.238;6.698;2022-12-29T08:32:40;7.13;;;4.70;;
9898;SDS011;4988;49.238;6.698;2022-12-29T08:35:05;7.80;;;4.23;;
9898;SDS011;4988;49.238;6.698;2022-12-29T08:37:32;8.93;;;4.70;;
9898;SDS011;4988;49.238;6.698;2022-12-29T08:39:57;7.80;;;4.70;;
9898;SDS011;4988;49.238;6.698;2022-12-29T08:42:24;6.80;;;4.30;;
9898;SDS011;4988;49.238;6.698;2022-12-29T08:44:55;7.27;;;4.57;;
9898;SDS011;4988;49.238;6.698;2022-12-29T08:47:21;8.17;;;4.17;;
9898;SDS011;4988;49.238;6.698;2022-12-29T08:49:46;6.53;;;3.73;;
9898;SDS011;4988;49.238;6.698;2022-12-29T08:52:11;7.87;;;4.17;;
9898;SDS011;4988;49.238;6.698;2022-12-29T08:54:36;8.50;;;3.70;;
9898;SDS011;4988;49.238;6.698;2022-12-29T08:57:02;10.30;;;4.10;;
9898;SDS011;4988;49.238;6.698;2022-12-29T08:59:27;5.60;;;3.87;;
9898;SDS011;4988;49.238;6.698;2022-12-29T09:01:52;6.13;;;3.93;;
9898;SDS011;4988;49.238;6.698;2022-12-29T09:04:18;6.40;;;4.37;;
9898;SDS011;4988;49.238;6.698;2022-12-29T09:06:44;6.13;;;4.23;;
9898;SDS011;4988;49.238;6.698;2022-12-29T09:09:10;9.70;;;4.50;;
9898;SDS011;4988;49.238;6.698;2022-12-29T09:11:36;8.50;;;4.70;;
9898;SDS011;4988;49.238;6.698;2022-12-29T09:14:01;6.13;;;4.00;;
9898;SDS011;4988;49.238;6.698;2022-12-29T09:16:26;9.93;;;4.30;;
9898;SDS011;4988;49.238;6.698;2022-12-29T09:18:52;6.80;;;4.07;;
9898;SDS011;4988;49.238;6.698;2022-12-29T09:21:17;9.17;;;4.20;;
9898;SDS011;4988;49.238;6.698;2022-12-29T09:23:43;6.77;;;4.47;;
9898;SDS011;4988;49.238;6.698;2022-12-29T09:26:08;6.93;;;4.37;;
9898;SDS011;4988;49.238;6.698;2022-12-29T09:28:34;5.93;;;4.23;;
9898;SDS011;4988;49.238;6.698;2022-12-29T09:31:00;9.93;;;3.87;;
9898;SDS011;4988;49.238;6.698;2022-12-29T09:33:25;7.23;;;3.40;;
9898;SDS011;4988;49.238;6.698;2022-12-29T09:35:53;9.13;;;5.60;;
9898;SDS011;4988;49.238;6.698;2022-12-29T09:38:20;8.80;;;4.10;;
9898;SDS011;4988;49.238;6.698;2022-12-29T09:40:49;9.27;;;4.97;;
9898;SDS011;4988;49.238;6.698;2022-12-29T09:48:37;7.90;;;4.27;;
9898;SDS011;4988;49.238;6.698;2022-12-29T09:51:13;5.23;;;3.73;;
9898;SDS011;4988;49.238;6.698;2022-12-29T09:53:45;8.20;;;4.63;;
9898;SDS011;4988;49.238;6.698;2022-12-29T09:56:16;9.03;;;5.47;;
9898;SDS011;4988;49.238;6.698;2022-12-29T09:58:55;6.13;;;4.10;;
9898;SDS011;4988;49.238;6.698;2022-12-29T10:01:32;9.47;;;4.27;;
9898;SDS011;4988;49.238;6.698;2022-12-29T10:04:02;5.97;;;3.00;;
9898;SDS011;4988;49.238;6.698;2022-12-29T10:07:15;7.90;;;3.13;;
9898;SDS011;4988;49.238;6.698;2022-12-29T10:12:26;5.50;;;3.30;;
9898;SDS011;4988;49.238;6.698;2022-12-29T10:20:54;4.90;;;3.10;;
9898;SDS011;4988;49.238;6.698;2022-12-29T10:26:28;5.63;;;3.83;;
9898;SDS011;4988;49.238;6.698;2022-12-29T10:29:02;7.63;;;4.47;;
9898;SDS011;4988;49.238;6.698;2022-12-29T10:31:33;8.23;;;3.67;;
9898;SDS011;4988;49.238;6.698;2022-12-29T10:34:20;7.30;;;3.77;;
9898;SDS011;4988;49.238;6.698;2022-12-29T10:36:49;9.57;;;4.03;;
9898;SDS011;4988;49.238;6.698;2022-12-29T10:39:32;7.33;;;4.10;;
9898;SDS011;4988;49.238;6.698;2022-12-29T10:42:13;6.73;;;3.50;;
9898;SDS011;4988;49.238;6.698;2022-12-29T10:44:51;5.97;;;3.70;;
9898;SDS011;4988;49.238;6.698;2022-12-29T10:47:18;5.93;;;3.80;;
9898;SDS011;4988;49.238;6.698;2022-12-29T10:49:48;7.17;;;3.27;;
9898;SDS011;4988;49.238;6.698;2022-12-29T10:52:15;5.20;;;3.00;;
9898;SDS011;4988;49.238;6.698;2022-12-29T10:57:38;8.00;;;3.57;;
9898;SDS011;4988;49.238;6.698;2022-12-29T11:00:13;5.87;;;3.10;;
9898;SDS011;4988;49.238;6.698;2022-12-29T11:07:53;6.33;;;2.90;;
9898;SDS011;4988;49.238;6.698;2022-12-29T11:15:24;7.17;;;2.60;;
9898;SDS011;4988;49.238;6.698;2022-12-29T11:17:51;9.03;;;2.70;;
9898;SDS011;4988;49.238;6.698;2022-12-29T11:20:37;7.70;;;3.00;;
9898;SDS011;4988;49.238;6.698;2022-12-29T11:23:04;3.93;;;2.70;;
9898;SDS011;4988;49.238;6.698;2022-12-29T11:25:51;5.47;;;2.47;;
9898;SDS011;4988;49.238;6.698;2022-12-29T11:28:31;7.73;;;2.73;;
9898;SDS011;4988;49.238;6.698;2022-12-29T11:31:01;5.93;;;2.80;;
9898;SDS011;4988;49.238;6.698;2022-12-29T11:33:28;4.47;;;2.47;;
9898;SDS011;4988;49.238;6.698;2022-12-29T11:36:16;10.33;;;2.43;;
9898;SDS011;4988;49.238;6.698;2022-12-29T11:38:45;4.43;;;2.60;;
9898;SDS011;4988;49.238;6.698;2022-12-29T11:41:20;8.00;;;2.40;;
9898;SDS011;4988;49.238;6.698;2022-12-29T11:43:48;6.70;;;2.43;;
9898;SDS011;4988;49.238;6.698;2022-12-29T11:46:19;4.23;;;2.20;;
9898;SDS011;4988;49.238;6.698;2022-12-29T11:48:57;2.33;;;1.97;;
9898;SDS011;4988;49.238;6.698;2022-12-29T11:51:27;7.50;;;2.97;;
9898;SDS011;4988;49.238;6.698;2022-12-29T11:54:24;4.60;;;2.30;;
9898;SDS011;4988;49.238;6.698;2022-12-29T11:56:54;6.10;;;1.93;;
9898;SDS011;4988;49.238;6.698;2022-12-29T12:01:52;3.37;;;1.60;;
9898;SDS011;4988;49.238;6.698;2022-12-29T12:04:19;3.87;;;1.80;;
9898;SDS011;4988;49.238;6.698;2022-12-29T12:06:49;2.67;;;1.70;;
9898;SDS011;4988;49.238;6.698;2022-12-29T12:09:23;4.17;;;2.07;;
9898;SDS011;4988;49.238;6.698;2022-12-29T12:11:54;3.17;;;1.70;;
9898;SDS011;4988;49.238;6.698;2022-12-29T12:16:57;2.20;;;1.90;;
9898;SDS011;4988;49.238;6.698;2022-12-29T12:19:43;4.03;;;1.73;;
9898;SDS011;4988;49.238;6.698;2022-12-29T12:30:35;4.00;;;1.90;;
9898;SDS011;4988;49.238;6.698;2022-12-29T12:33:14;1.80;;;1.47;;
9898;SDS011;4988;49.238;6.698;2022-12-29T12:35:57;2.87;;;1.80;;
9898;SDS011;4988;49.238;6.698;2022-12-29T12:44:14;5.10;;;1.80;;
9898;SDS011;4988;49.238;6.698;2022-12-29T13:06:22;3.63;;;2.00;;
9898;SDS011;4988;49.238;6.698;2022-12-29T13:17:25;5.30;;;1.80;;
9898;SDS011;4988;49.238;6.698;2022-12-29T13:28:20;4.30;;;1.80;;
9898;SDS011;4988;49.238;6.698;2022-12-29T13:31:04;3.73;;;2.00;;
9898;SDS011;4988;49.238;6.698;2022-12-29T13:33:46;6.13;;;1.90;;
9898;SDS011;4988;49.238;6.698;2022-12-29T13:36:54;3.77;;;2.20;;
9898;SDS011;4988;49.238;6.698;2022-12-29T13:41:54;6.23;;;2.10;;
9898;SDS011;4988;49.238;6.698;2022-12-29T13:44:25;7.73;;;2.10;;
9898;SDS011;4988;49.238;6.698;2022-12-29T13:46:54;4.60;;;1.90;;
9898;SDS011;4988;49.238;6.698;2022-12-29T13:49:23;9.47;;;2.40;;
9898;SDS011;4988;49.238;6.698;2022-12-29T13:51:57;3.83;;;1.53;;
9898;SDS011;4988;49.238;6.698;2022-12-29T13:54:30;4.97;;;1.83;;
9898;SDS011;4988;49.238;6.698;2022-12-29T13:59:40;7.00;;;3.03;;
9898;SDS011;4988;49.238;6.698;2022-12-29T14:07:42;3.10;;;1.97;;
9898;SDS011;4988;49.238;6.698;2022-12-29T14:10:25;7.83;;;2.57;;
9898;SDS011;4988;49.238;6.698;2022-12-29T14:13:14;8.10;;;2.20;;
9898;SDS011;4988;49.238;6.698;2022-12-29T14:15:43;5.37;;;2.07;;
9898;SDS011;4988;49.238;6.698;2022-12-29T14:18:17;6.97;;;2.47;;
9898;SDS011;4988;49.238;6.698;2022-12-29T14:20:52;5.43;;;2.37;;
9898;SDS011;4988;49.238;6.698;2022-12-29T14:28:48;6.00;;;2.30;;
9898;SDS011;4988;49.238;6.698;2022-12-29T14:33:39;7.20;;;3.03;;
9898;SDS011;4988;49.238;6.698;2022-12-29T14:36:33;8.27;;;3.30;;
9898;SDS011;4988;49.238;6.698;2022-12-29T14:39:26;9.90;;;2.40;;
9898;SDS011;4988;49.238;6.698;2022-12-29T14:47:33;11.03;;;3.20;;
9898;SDS011;4988;49.238;6.698;2022-12-29T14:50:03;7.40;;;3.33;;
9898;SDS011;4988;49.238;6.698;2022-12-29T14:52:46;7.13;;;3.27;;
9898;SDS011;4988;49.238;6.698;2022-12-29T14:57:48;6.97;;;3.03;;
9898;SDS011;4988;49.238;6.698;2022-12-29T15:02:43;9.50;;;2.50;;
9898;SDS011;4988;49.238;6.698;2022-12-29T15:08:20;5.87;;;2.63;;
9898;SDS011;4988;49.238;6.698;2022-12-29T15:10:52;10.10;;;2.60;;
9898;SDS011;4988;49.238;6.698;2022-12-29T15:13:24;6.97;;;2.23;;
9898;SDS011;4988;49.238;6.698;2022-12-29T15:15:58;7.50;;;2.47;;
9898;SDS011;4988;49.238;6.698;2022-12-29T15:18:24;6.70;;;2.10;;
9898;SDS011;4988;49.238;6.698;2022-12-29T15:21:13;7.53;;;2.20;;
9898;SDS011;4988;49.238;6.698;2022-12-29T15:23:38;7.20;;;2.73;;
9898;SDS011;4988;49.238;6.698;2022-12-29T15:26:05;11.47;;;2.63;;
9898;SDS011;4988;49.238;6.698;2022-12-29T15:31:09;10.67;;;2.57;;
9898;SDS011;4988;49.238;6.698;2022-12-29T15:33:50;11.33;;;2.83;;
9898;SDS011;4988;49.238;6.698;2022-12-29T15:36:21;9.20;;;2.60;;
9898;SDS011;4988;49.238;6.698;2022-12-29T15:38:47;10.10;;;2.60;;
9898;SDS011;4988;49.238;6.698;2022-12-29T15:41:31;8.03;;;3.23;;
9898;SDS011;4988;49.238;6.698;2022-12-29T15:44:25;6.03;;;2.70;;
9898;SDS011;4988;49.238;6.698;2022-12-29T15:46:54;9.03;;;2.73;;
9898;SDS011;4988;49.238;6.698;2022-12-29T15:49:19;12.17;;;2.90;;
9898;SDS011;4988;49.238;6.698;2022-12-29T15:51:45;8.33;;;2.33;;
9898;SDS011;4988;49.238;6.698;2022-12-29T15:54:17;8.73;;;2.70;;
9898;SDS011;4988;49.238;6.698;2022-12-29T15:56:46;7.40;;;2.37;;
9898;SDS011;4988;49.238;6.698;2022-12-29T15:59:29;10.13;;;3.33;;
9898;SDS011;4988;49.238;6.698;2022-12-29T16:01:57;7.17;;;2.23;;
9898;SDS011;4988;49.238;6.698;2022-12-29T16:04:25;11.73;;;2.50;;
9898;SDS011;4988;49.238;6.698;2022-12-29T16:09:32;9.57;;;3.47;;
9898;SDS011;4988;49.238;6.698;2022-12-29T16:12:13;7.03;;;3.10;;
9898;SDS011;4988;49.238;6.698;2022-12-29T16:14:44;8.33;;;2.53;;
9898;SDS011;4988;49.238;6.698;2022-12-29T16:17:13;6.67;;;2.20;;
9898;SDS011;4988;49.238;6.698;2022-12-29T16:19:46;8.17;;;2.37;;
9898;SDS011;4988;49.238;6.698;2022-12-29T16:22:17;9.77;;;3.13;;
9898;SDS011;4988;49.238;6.698;2022-12-29T16:25:01;8.07;;;2.70;;
9898;SDS011;4988;49.238;6.698;2022-12-29T16:27:36;6.60;;;2.20;;
9898;SDS011;4988;49.238;6.698;2022-12-29T16:30:06;7.73;;;2.30;;
9898;SDS011;4988;49.238;6.698;2022-12-29T16:32:48;7.00;;;2.53;;
9898;SDS011;4988;49.238;6.698;2022-12-29T16:35:20;6.30;;;2.20;;
9898;SDS011;4988;49.238;6.698;2022-12-29T16:40:59;8.83;;;2.37;;
9898;SDS011;4988;49.238;6.698;2022-12-29T16:46:17;7.67;;;2.23;;
9898;SDS011;4988;49.238;6.698;2022-12-29T16:48:47;9.90;;;2.47;;
9898;SDS011;4988;49.238;6.698;2022-12-29T16:51:16;10.03;;;2.90;;
9898;SDS011;4988;49.238;6.698;2022-12-29T16:53:50;5.27;;;2.30;;
9898;SDS011;4988;49.238;6.698;2022-12-29T16:56:17;8.77;;;2.57;;
9898;SDS011;4988;49.238;6.698;2022-12-29T16:58:48;12.63;;;2.67;;
9898;SDS011;4988;49.238;6.698;2022-12-29T17:01:18;9.70;;;2.60;;
9898;SDS011;4988;49.238;6.698;2022-12-29T17:03:51;10.67;;;2.63;;
9898;SDS011;4988;49.238;6.698;2022-12-29T17:06:20;11.40;;;3.20;;
9898;SDS011;4988;49.238;6.698;2022-12-29T17:08:47;11.67;;;3.63;;
9898;SDS011;4988;49.238;6.698;2022-12-29T17:11:24;12.77;;;2.93;;
9898;SDS011;4988;49.238;6.698;2022-12-29T17:17:16;8.40;;;3.10;;
9898;SDS011;4988;49.238;6.698;2022-12-29T17:19:45;7.40;;;2.43;;
9898;SDS011;4988;49.238;6.698;2022-12-29T17:22:24;7.10;;;2.30;;
9898;SDS011;4988;49.238;6.698;2022-12-29T17:24:51;12.43;;;2.70;;
9898;SDS011;4988;49.238;6.698;2022-12-29T17:29:48;7.93;;;2.70;;
9898;SDS011;4988;49.238;6.698;2022-12-29T17:32:15;11.70;;;2.40;;
9898;SDS011;4988;49.238;6.698;2022-12-29T17:34:41;8.70;;;2.70;;
9898;SDS011;4988;49.238;6.698;2022-12-29T17:39:52;8.47;;;2.47;;
9898;SDS011;4988;49.238;6.698;2022-12-29T17:42:18;8.13;;;2.90;;
9898;SDS011;4988;49.238;6.698;2022-12-29T17:44:44;7.70;;;2.40;;
9898;SDS011;4988;49.238;6.698;2022-12-29T17:47:09;6.53;;;2.47;;
9898;SDS011;4988;49.238;6.698;2022-12-29T17:49:35;10.37;;;2.60;;
9898;SDS011;4988;49.238;6.698;2022-12-29T17:52:01;8.43;;;3.00;;
9898;SDS011;4988;49.238;6.698;2022-12-29T17:54:27;11.00;;;2.93;;
9898;SDS011;4988;49.238;6.698;2022-12-29T17:56:52;7.10;;;2.90;;
9898;SDS011;4988;49.238;6.698;2022-12-29T17:59:18;10.87;;;2.90;;
9898;SDS011;4988;49.238;6.698;2022-12-29T18:01:43;6.53;;;2.57;;
9898;SDS011;4988;49.238;6.698;2022-12-29T18:04:14;8.53;;;2.60;;
9898;SDS011;4988;49.238;6.698;2022-12-29T18:06:41;8.17;;;2.90;;
9898;SDS011;4988;49.238;6.698;2022-12-29T18:09:07;8.50;;;3.13;;
9898;SDS011;4988;49.238;6.698;2022-12-29T18:11:34;10.17;;;2.47;;
9898;SDS011;4988;49.238;6.698;2022-12-29T18:14:03;11.37;;;2.87;;
9898;SDS011;4988;49.238;6.698;2022-12-29T18:16:28;10.93;;;2.53;;
9898;SDS011;4988;49.238;6.698;2022-12-29T18:18:53;7.97;;;2.50;;
9898;SDS011;4988;49.238;6.698;2022-12-29T18:21:19;8.37;;;2.90;;
9898;SDS011;4988;49.238;6.698;2022-12-29T18:23:47;21.30;;;6.03;;
9898;SDS011;4988;49.238;6.698;2022-12-29T18:26:15;21.03;;;5.90;;
9898;SDS011;4988;49.238;6.698;2022-12-29T18:28:42;9.83;;;2.63;;
9898;SDS011;4988;49.238;6.698;2022-12-29T18:31:18;5.27;;;2.50;;
9898;SDS011;4988;49.238;6.698;2022-12-29T18:33:44;12.33;;;2.60;;